sensor_id;sensor_type;location;lat;lon;timestamp;P1;durP1;ratioP1;P2;durP2;ratioP2
39822;SDS011;25499;53.958;10.970;2023-12-20T07:08:04;15.93;;;1.85;;
39822;SDS011;25499;53.958;10.970;2023-12-20T07:10:32;8.57;;;1.63;;
39822;SDS011;25499;53.958;10.970;2023-12-20T07:12:58;9.50;;;1.40;;
39822;SDS011;25499;53.958;10.970;2023-12-20T07:15:25;13.30;;;2.28;;
39822;SDS011;25499;53.958;10.970;2023-12-20T07:17:54;13.07;;;2.13;;
39822;SDS011;25499;53.958;10.970;2023-12-20T07:20:21;14.57;;;2.00;;
39822;SDS011;25499;53.958;10.970;2023-12-20T07:22:48;7.38;;;1.63;;
39822;SDS011;25499;53.958;10.970;2023-12-20T07:25:17;10.35;;;1.63;;
39822;SDS011;25499;53.958;10.970;2023-12-20T07:27:45;15.75;;;1.80;;
39822;SDS011;25499;53.958;10.970;2023-12-20T07:30:12;8.13;;;1.80;;
39822;SDS011;25499;53.958;10.970;2023-12-20T07:32:39;15.70;;;1.80;;
39822;SDS011;25499;53.958;10.970;2023-12-20T07:35:06;12.40;;;2.00;;
39822;SDS011;25499;53.958;10.970;2023-12-20T07:37:33;13.77;;;1.88;;
39822;SDS011;25499;53.958;10.970;2023-12-20T07:40:00;15.30;;;2.05;;
39822;SDS011;25499;53.958;10.970;2023-12-20T07:42:28;7.25;;;1.70;;
39822;SDS011;25499;53.958;10.970;2023-12-20T07:44:55;11.95;;;1.77;;
39822;SDS011;25499;53.958;10.970;2023-12-20T07:47:21;11.60;;;2.03;;
39822;SDS011;25499;53.958;10.970;2023-12-20T07:49:48;12.30;;;1.60;;
39822;SDS011;25499;53.958;10.970;2023-12-20T07:52:16;16.20;;;2.45;;
39822;SDS011;25499;53.958;10.970;2023-12-20T07:54:44;18.95;;;2.17;;
39822;SDS011;25499;53.958;10.970;2023-12-20T07:57:10;12.93;;;2.15;;
39822;SDS011;25499;53.958;10.970;2023-12-20T07:59:39;14.77;;;2.35;;
39822;SDS011;25499;53.958;10.970;2023-12-20T08:02:06;16.60;;;2.17;;
39822;SDS011;25499;53.958;10.970;2023-12-20T08:04:39;13.65;;;2.25;;
39822;SDS011;25499;53.958;10.970;2023-12-20T08:07:06;16.58;;;2.10;;
39822;SDS011;25499;53.958;10.970;2023-12-20T08:09:33;18.85;;;1.98;;
39822;SDS011;25499;53.958;10.970;2023-12-20T08:12:01;13.70;;;1.65;;
39822;SDS011;25499;53.958;10.970;2023-12-20T08:14:29;10.40;;;1.65;;
39822;SDS011;25499;53.958;10.970;2023-12-20T08:16:57;14.45;;;1.92;;
39822;SDS011;25499;53.958;10.970;2023-12-20T08:19:24;15.45;;;1.73;;
39822;SDS011;25499;53.958;10.970;2023-12-20T08:21:51;21.25;;;2.38;;
39822;SDS011;25499;53.958;10.970;2023-12-20T08:24:18;14.95;;;1.80;;
39822;SDS011;25499;53.958;10.970;2023-12-20T08:26:44;13.85;;;2.10;;
39822;SDS011;25499;53.958;10.970;2023-12-20T08:29:13;17.27;;;2.13;;
39822;SDS011;25499;53.958;10.970;2023-12-20T08:31:40;13.93;;;1.92;;
39822;SDS011;25499;53.958;10.970;2023-12-20T08:34:08;20.42;;;1.92;;
39822;SDS011;25499;53.958;10.970;2023-12-20T08:36:37;17.37;;;2.27;;
39822;SDS011;25499;53.958;10.970;2023-12-20T08:39:03;19.85;;;2.50;;
39822;SDS011;25499;53.958;10.970;2023-12-20T08:41:32;20.55;;;2.60;;
39822;SDS011;25499;53.958;10.970;2023-12-20T08:43:59;11.70;;;2.05;;
39822;SDS011;25499;53.958;10.970;2023-12-20T08:46:26;11.90;;;1.80;;
39822;SDS011;25499;53.958;10.970;2023-12-20T08:48:52;16.77;;;1.90;;
39822;SDS011;25499;53.958;10.970;2023-12-20T08:51:21;16.75;;;1.65;;
39822;SDS011;25499;53.958;10.970;2023-12-20T08:53:48;12.32;;;1.70;;
39822;SDS011;25499;53.958;10.970;2023-12-20T08:56:15;13.65;;;2.05;;
39822;SDS011;25499;53.958;10.970;2023-12-20T08:58:43;10.70;;;1.70;;
39822;SDS011;25499;53.958;10.970;2023-12-20T09:01:09;11.10;;;1.92;;
39822;SDS011;25499;53.958;10.970;2023-12-20T09:03:36;17.08;;;2.17;;
39822;SDS011;25499;53.958;10.970;2023-12-20T09:06:03;22.45;;;2.22;;
39822;SDS011;25499;53.958;10.970;2023-12-20T09:08:32;15.85;;;2.30;;
39822;SDS011;25499;53.958;10.970;2023-12-20T09:10:59;14.15;;;2.58;;
39822;SDS011;25499;53.958;10.970;2023-12-20T09:13:26;19.33;;;2.70;;
39822;SDS011;25499;53.958;10.970;2023-12-20T09:15:53;16.95;;;2.55;;
39822;SDS011;25499;53.958;10.970;2023-12-20T09:18:21;18.00;;;2.88;;
39822;SDS011;25499;53.958;10.970;2023-12-20T09:20:48;15.93;;;2.30;;
39822;SDS011;25499;53.958;10.970;2023-12-20T09:23:14;18.17;;;2.40;;
39822;SDS011;25499;53.958;10.970;2023-12-20T09:25:43;20.50;;;2.78;;
39822;SDS011;25499;53.958;10.970;2023-12-20T09:28:10;17.02;;;2.20;;
39822;SDS011;25499;53.958;10.970;2023-12-20T09:30:36;18.35;;;2.75;;
39822;SDS011;25499;53.958;10.970;2023-12-20T09:33:06;18.70;;;2.88;;
39822;SDS011;25499;53.958;10.970;2023-12-20T09:35:33;22.40;;;2.45;;
39822;SDS011;25499;53.958;10.970;2023-12-20T09:37:59;13.25;;;1.67;;
39822;SDS011;25499;53.958;10.970;2023-12-20T09:40:26;9.80;;;1.80;;
39822;SDS011;25499;53.958;10.970;2023-12-20T09:42:57;14.93;;;2.42;;
39822;SDS011;25499;53.958;10.970;2023-12-20T09:45:29;13.30;;;2.17;;
39822;SDS011;25499;53.958;10.970;2023-12-20T09:47:57;12.93;;;2.35;;
39822;SDS011;25499;53.958;10.970;2023-12-20T09:50:25;6.53;;;1.02;;
39822;SDS011;25499;53.958;10.970;2023-12-20T09:52:52;10.88;;;0.80;;
39822;SDS011;25499;53.958;10.970;2023-12-20T09:55:21;5.65;;;0.80;;
39822;SDS011;25499;53.958;10.970;2023-12-20T09:57:49;7.40;;;0.93;;
39822;SDS011;25499;53.958;10.970;2023-12-20T10:00:18;5.35;;;0.90;;
39822;SDS011;25499;53.958;10.970;2023-12-20T10:02:45;6.80;;;1.20;;
39822;SDS011;25499;53.958;10.970;2023-12-20T10:05:17;9.40;;;1.30;;
39822;SDS011;25499;53.958;10.970;2023-12-20T10:07:45;9.02;;;1.50;;
39822;SDS011;25499;53.958;10.970;2023-12-20T10:10:12;3.85;;;0.68;;
39822;SDS011;25499;53.958;10.970;2023-12-20T10:12:40;9.73;;;1.10;;
39822;SDS011;25499;53.958;10.970;2023-12-20T10:15:28;5.15;;;0.88;;
39822;SDS011;25499;53.958;10.970;2023-12-20T10:17:55;6.85;;;0.82;;
39822;SDS011;25499;53.958;10.970;2023-12-20T10:20:22;4.50;;;0.80;;
39822;SDS011;25499;53.958;10.970;2023-12-20T10:22:51;6.28;;;0.60;;
39822;SDS011;25499;53.958;10.970;2023-12-20T10:25:19;2.80;;;0.52;;
39822;SDS011;25499;53.958;10.970;2023-12-20T10:27:46;4.00;;;0.52;;
39822;SDS011;25499;53.958;10.970;2023-12-20T10:30:13;4.00;;;0.43;;
39822;SDS011;25499;53.958;10.970;2023-12-20T10:32:41;3.67;;;0.40;;
39822;SDS011;25499;53.958;10.970;2023-12-20T10:35:08;6.75;;;0.95;;
39822;SDS011;25499;53.958;10.970;2023-12-20T10:37:35;4.97;;;0.50;;
39822;SDS011;25499;53.958;10.970;2023-12-20T10:40:02;4.47;;;0.75;;
39822;SDS011;25499;53.958;10.970;2023-12-20T10:42:31;3.17;;;0.70;;
39822;SDS011;25499;53.958;10.970;2023-12-20T10:45:00;5.72;;;0.60;;
39822;SDS011;25499;53.958;10.970;2023-12-20T10:47:27;9.27;;;0.80;;
39822;SDS011;25499;53.958;10.970;2023-12-20T10:50:00;5.60;;;0.70;;
39822;SDS011;25499;53.958;10.970;2023-12-20T10:52:31;5.53;;;0.70;;
39822;SDS011;25499;53.958;10.970;2023-12-20T10:55:00;4.18;;;0.70;;
39822;SDS011;25499;53.958;10.970;2023-12-20T10:57:27;6.45;;;0.90;;
39822;SDS011;25499;53.958;10.970;2023-12-20T10:59:54;8.55;;;0.75;;
39822;SDS011;25499;53.958;10.970;2023-12-20T11:02:27;5.57;;;0.70;;
39822;SDS011;25499;53.958;10.970;2023-12-20T11:04:56;4.88;;;0.52;;
39822;SDS011;25499;53.958;10.970;2023-12-20T11:07:32;4.40;;;0.60;;
39822;SDS011;25499;53.958;10.970;2023-12-20T11:10:09;10.63;;;0.88;;
39822;SDS011;25499;53.958;10.970;2023-12-20T11:12:46;2.47;;;0.60;;
39822;SDS011;25499;53.958;10.970;2023-12-20T11:15:18;7.07;;;0.70;;
39822;SDS011;25499;53.958;10.970;2023-12-20T11:17:51;7.57;;;1.48;;
39822;SDS011;25499;53.958;10.970;2023-12-20T11:20:22;7.30;;;0.63;;
39822;SDS011;25499;53.958;10.970;2023-12-20T11:22:54;3.40;;;0.50;;
39822;SDS011;25499;53.958;10.970;2023-12-20T11:25:21;5.88;;;1.50;;
39822;SDS011;25499;53.958;10.970;2023-12-20T11:30:40;6.32;;;1.42;;
39822;SDS011;25499;53.958;10.970;2023-12-20T11:33:07;8.15;;;0.90;;
39822;SDS011;25499;53.958;10.970;2023-12-20T11:35:34;11.25;;;1.10;;
39822;SDS011;25499;53.958;10.970;2023-12-20T11:38:03;8.23;;;0.60;;
39822;SDS011;25499;53.958;10.970;2023-12-20T11:40:31;12.98;;;0.88;;
39822;SDS011;25499;53.958;10.970;2023-12-20T11:43:01;9.30;;;1.33;;
39822;SDS011;25499;53.958;10.970;2023-12-20T11:45:28;4.57;;;0.57;;
39822;SDS011;25499;53.958;10.970;2023-12-20T11:47:56;10.93;;;0.90;;
39822;SDS011;25499;53.958;10.970;2023-12-20T11:50:23;5.57;;;0.90;;
39822;SDS011;25499;53.958;10.970;2023-12-20T11:52:51;7.10;;;0.40;;
39822;SDS011;25499;53.958;10.970;2023-12-20T11:55:21;5.25;;;0.63;;
39822;SDS011;25499;53.958;10.970;2023-12-20T11:57:49;3.58;;;0.60;;
39822;SDS011;25499;53.958;10.970;2023-12-20T12:00:17;2.67;;;0.40;;
39822;SDS011;25499;53.958;10.970;2023-12-20T12:02:50;2.70;;;0.35;;
39822;SDS011;25499;53.958;10.970;2023-12-20T12:05:21;7.25;;;0.47;;
39822;SDS011;25499;53.958;10.970;2023-12-20T12:07:48;4.05;;;0.60;;
39822;SDS011;25499;53.958;10.970;2023-12-20T12:10:15;3.22;;;0.30;;
39822;SDS011;25499;53.958;10.970;2023-12-20T12:12:44;3.38;;;0.50;;
39822;SDS011;25499;53.958;10.970;2023-12-20T12:15:11;4.75;;;0.63;;
39822;SDS011;25499;53.958;10.970;2023-12-20T12:17:38;4.63;;;0.65;;
39822;SDS011;25499;53.958;10.970;2023-12-20T12:20:05;6.50;;;0.70;;
39822;SDS011;25499;53.958;10.970;2023-12-20T12:22:34;4.43;;;0.70;;
39822;SDS011;25499;53.958;10.970;2023-12-20T12:25:09;5.97;;;0.70;;
39822;SDS011;25499;53.958;10.970;2023-12-20T12:27:39;2.83;;;0.70;;
39822;SDS011;25499;53.958;10.970;2023-12-20T12:30:08;7.78;;;0.90;;
39822;SDS011;25499;53.958;10.970;2023-12-20T12:32:38;7.88;;;0.80;;
39822;SDS011;25499;53.958;10.970;2023-12-20T12:35:06;5.22;;;0.50;;
39822;SDS011;25499;53.958;10.970;2023-12-20T12:37:35;6.45;;;0.90;;
39822;SDS011;25499;53.958;10.970;2023-12-20T12:40:04;9.13;;;0.87;;
39822;SDS011;25499;53.958;10.970;2023-12-20T12:42:32;6.00;;;0.85;;
39822;SDS011;25499;53.958;10.970;2023-12-20T12:44:59;10.07;;;1.20;;
39822;SDS011;25499;53.958;10.970;2023-12-20T12:47:27;7.60;;;1.10;;
39822;SDS011;25499;53.958;10.970;2023-12-20T12:49:54;7.63;;;1.10;;
39822;SDS011;25499;53.958;10.970;2023-12-20T12:52:20;6.47;;;0.85;;
39822;SDS011;25499;53.958;10.970;2023-12-20T12:54:47;9.75;;;1.00;;
39822;SDS011;25499;53.958;10.970;2023-12-20T12:57:14;16.38;;;1.63;;
39822;SDS011;25499;53.958;10.970;2023-12-20T12:59:42;5.90;;;0.80;;
39822;SDS011;25499;53.958;10.970;2023-12-20T13:02:10;7.13;;;1.00;;
39822;SDS011;25499;53.958;10.970;2023-12-20T13:04:39;7.30;;;0.85;;
39822;SDS011;25499;53.958;10.970;2023-12-20T13:07:06;13.73;;;1.10;;
39822;SDS011;25499;53.958;10.970;2023-12-20T13:09:36;11.90;;;1.23;;
39822;SDS011;25499;53.958;10.970;2023-12-20T13:12:04;12.00;;;1.45;;
39822;SDS011;25499;53.958;10.970;2023-12-20T13:14:31;9.45;;;1.20;;
39822;SDS011;25499;53.958;10.970;2023-12-20T13:16:59;13.60;;;1.50;;
39822;SDS011;25499;53.958;10.970;2023-12-20T13:19:26;10.77;;;1.25;;
39822;SDS011;25499;53.958;10.970;2023-12-20T13:21:54;6.70;;;1.27;;
39822;SDS011;25499;53.958;10.970;2023-12-20T13:24:21;8.48;;;1.42;;
39822;SDS011;25499;53.958;10.970;2023-12-20T13:26:48;9.48;;;1.60;;
39822;SDS011;25499;53.958;10.970;2023-12-20T13:29:14;5.65;;;0.98;;
39822;SDS011;25499;53.958;10.970;2023-12-20T13:31:42;13.45;;;1.63;;
39822;SDS011;25499;53.958;10.970;2023-12-20T13:34:08;11.88;;;1.67;;
39822;SDS011;25499;53.958;10.970;2023-12-20T13:36:35;11.75;;;1.40;;
39822;SDS011;25499;53.958;10.970;2023-12-20T13:39:04;16.92;;;1.95;;
39822;SDS011;25499;53.958;10.970;2023-12-20T13:41:32;19.73;;;2.63;;
39822;SDS011;25499;53.958;10.970;2023-12-20T13:43:58;11.30;;;1.90;;
39822;SDS011;25499;53.958;10.970;2023-12-20T13:46:26;16.83;;;2.00;;
39822;SDS011;25499;53.958;10.970;2023-12-20T13:48:53;13.00;;;1.60;;
39822;SDS011;25499;53.958;10.970;2023-12-20T13:51:20;11.27;;;1.70;;
39822;SDS011;25499;53.958;10.970;2023-12-20T13:53:47;15.18;;;2.05;;
39822;SDS011;25499;53.958;10.970;2023-12-20T13:56:15;14.45;;;2.10;;
39822;SDS011;25499;53.958;10.970;2023-12-20T13:58:43;16.20;;;2.10;;
39822;SDS011;25499;53.958;10.970;2023-12-20T14:01:11;14.38;;;2.28;;
39822;SDS011;25499;53.958;10.970;2023-12-20T14:03:38;18.63;;;2.38;;
39822;SDS011;25499;53.958;10.970;2023-12-20T14:06:06;16.85;;;2.17;;
39822;SDS011;25499;53.958;10.970;2023-12-20T14:08:33;16.05;;;2.40;;
39822;SDS011;25499;53.958;10.970;2023-12-20T14:11:01;14.85;;;2.13;;
39822;SDS011;25499;53.958;10.970;2023-12-20T14:13:29;15.93;;;2.47;;
39822;SDS011;25499;53.958;10.970;2023-12-20T14:15:56;21.42;;;2.70;;
39822;SDS011;25499;53.958;10.970;2023-12-20T14:18:25;15.85;;;2.88;;
39822;SDS011;25499;53.958;10.970;2023-12-20T14:20:52;16.52;;;2.35;;
39822;SDS011;25499;53.958;10.970;2023-12-20T14:23:20;17.67;;;2.95;;
39822;SDS011;25499;53.958;10.970;2023-12-20T14:25:48;22.50;;;2.80;;
39822;SDS011;25499;53.958;10.970;2023-12-20T14:28:15;18.70;;;3.15;;
39822;SDS011;25499;53.958;10.970;2023-12-20T14:30:44;16.10;;;2.85;;
39822;SDS011;25499;53.958;10.970;2023-12-20T14:33:11;17.48;;;3.22;;
39822;SDS011;25499;53.958;10.970;2023-12-20T14:35:37;18.80;;;3.03;;
39822;SDS011;25499;53.958;10.970;2023-12-20T14:38:05;19.35;;;2.70;;
39822;SDS011;25499;53.958;10.970;2023-12-20T14:40:32;18.45;;;3.13;;
39822;SDS011;25499;53.958;10.970;2023-12-20T14:42:59;17.17;;;2.83;;
39822;SDS011;25499;53.958;10.970;2023-12-20T14:45:26;20.50;;;3.70;;
39822;SDS011;25499;53.958;10.970;2023-12-20T14:47:55;20.45;;;3.22;;
39822;SDS011;25499;53.958;10.970;2023-12-20T14:50:21;19.50;;;3.95;;
39822;SDS011;25499;53.958;10.970;2023-12-20T14:52:48;17.52;;;2.80;;
39822;SDS011;25499;53.958;10.970;2023-12-20T14:55:15;20.00;;;3.63;;
39822;SDS011;25499;53.958;10.970;2023-12-20T14:57:42;20.85;;;3.22;;
39822;SDS011;25499;53.958;10.970;2023-12-20T15:00:09;25.75;;;3.55;;
39822;SDS011;25499;53.958;10.970;2023-12-20T15:02:41;20.63;;;3.53;;
39822;SDS011;25499;53.958;10.970;2023-12-20T15:05:09;19.00;;;3.00;;
39822;SDS011;25499;53.958;10.970;2023-12-20T15:07:36;18.73;;;3.15;;
39822;SDS011;25499;53.958;10.970;2023-12-20T15:10:04;15.20;;;3.15;;
39822;SDS011;25499;53.958;10.970;2023-12-20T15:12:31;18.55;;;3.67;;
39822;SDS011;25499;53.958;10.970;2023-12-20T15:14:59;18.08;;;3.53;;
39822;SDS011;25499;53.958;10.970;2023-12-20T15:17:26;22.00;;;3.80;;
39822;SDS011;25499;53.958;10.970;2023-12-20T15:19:53;19.65;;;4.07;;
39822;SDS011;25499;53.958;10.970;2023-12-20T15:22:21;18.02;;;3.97;;
39822;SDS011;25499;53.958;10.970;2023-12-20T15:24:47;13.35;;;3.25;;
39822;SDS011;25499;53.958;10.970;2023-12-20T15:27:16;21.25;;;4.13;;
39822;SDS011;25499;53.958;10.970;2023-12-20T15:29:43;17.17;;;3.45;;
39822;SDS011;25499;53.958;10.970;2023-12-20T15:32:10;10.77;;;3.20;;
39822;SDS011;25499;53.958;10.970;2023-12-20T15:34:37;13.88;;;3.47;;
39822;SDS011;25499;53.958;10.970;2023-12-20T15:37:03;13.13;;;3.60;;
39822;SDS011;25499;53.958;10.970;2023-12-20T15:39:31;16.80;;;3.70;;
39822;SDS011;25499;53.958;10.970;2023-12-20T15:41:58;15.27;;;3.38;;
39822;SDS011;25499;53.958;10.970;2023-12-20T15:44:27;13.18;;;3.00;;
39822;SDS011;25499;53.958;10.970;2023-12-20T15:46:54;13.32;;;4.00;;
39822;SDS011;25499;53.958;10.970;2023-12-20T15:49:20;13.65;;;3.10;;
39822;SDS011;25499;53.958;10.970;2023-12-20T15:51:47;16.42;;;3.85;;
39822;SDS011;25499;53.958;10.970;2023-12-20T15:54:14;11.88;;;3.28;;
39822;SDS011;25499;53.958;10.970;2023-12-20T15:56:42;19.10;;;4.25;;
39822;SDS011;25499;53.958;10.970;2023-12-20T15:59:10;13.82;;;3.65;;
39822;SDS011;25499;53.958;10.970;2023-12-20T16:01:36;19.77;;;3.95;;
39822;SDS011;25499;53.958;10.970;2023-12-20T16:04:03;14.15;;;4.28;;
39822;SDS011;25499;53.958;10.970;2023-12-20T16:06:30;14.15;;;3.60;;
39822;SDS011;25499;53.958;10.970;2023-12-20T16:08:58;11.82;;;3.38;;
39822;SDS011;25499;53.958;10.970;2023-12-20T16:11:25;10.00;;;3.63;;
39822;SDS011;25499;53.958;10.970;2023-12-20T16:13:53;13.70;;;3.53;;
39822;SDS011;25499;53.958;10.970;2023-12-20T16:16:21;15.07;;;3.65;;
39822;SDS011;25499;53.958;10.970;2023-12-20T16:18:47;16.17;;;3.63;;
39822;SDS011;25499;53.958;10.970;2023-12-20T16:21:14;12.93;;;3.58;;
39822;SDS011;25499;53.958;10.970;2023-12-20T16:23:44;17.83;;;4.07;;
39822;SDS011;25499;53.958;10.970;2023-12-20T16:26:11;13.40;;;3.40;;
39822;SDS011;25499;53.958;10.970;2023-12-20T16:28:38;12.38;;;3.10;;
39822;SDS011;25499;53.958;10.970;2023-12-20T16:31:06;13.60;;;3.70;;
39822;SDS011;25499;53.958;10.970;2023-12-20T16:33:33;18.80;;;3.30;;
39822;SDS011;25499;53.958;10.970;2023-12-20T16:36:00;17.90;;;3.70;;
39822;SDS011;25499;53.958;10.970;2023-12-20T16:38:27;18.17;;;3.67;;
39822;SDS011;25499;53.958;10.970;2023-12-20T16:40:53;14.13;;;3.30;;
39822;SDS011;25499;53.958;10.970;2023-12-20T16:43:20;13.00;;;3.28;;
39822;SDS011;25499;53.958;10.970;2023-12-20T16:45:48;18.08;;;3.95;;
39822;SDS011;25499;53.958;10.970;2023-12-20T16:48:16;17.08;;;4.63;;
39822;SDS011;25499;53.958;10.970;2023-12-20T16:50:43;16.27;;;3.50;;
39822;SDS011;25499;53.958;10.970;2023-12-20T16:53:10;14.18;;;3.17;;
39822;SDS011;25499;53.958;10.970;2023-12-20T16:55:37;11.73;;;3.10;;
39822;SDS011;25499;53.958;10.970;2023-12-20T16:58:04;10.35;;;2.63;;
39822;SDS011;25499;53.958;10.970;2023-12-20T17:00:30;19.60;;;2.83;;
39822;SDS011;25499;53.958;10.970;2023-12-20T17:02:57;14.55;;;2.90;;
39822;SDS011;25499;53.958;10.970;2023-12-20T17:05:25;17.65;;;3.65;;
39822;SDS011;25499;53.958;10.970;2023-12-20T17:07:52;16.50;;;3.05;;
39822;SDS011;25499;53.958;10.970;2023-12-20T17:10:19;14.02;;;3.38;;
39822;SDS011;25499;53.958;10.970;2023-12-20T17:12:47;18.30;;;3.08;;
39822;SDS011;25499;53.958;10.970;2023-12-20T17:15:14;17.15;;;2.80;;
39822;SDS011;25499;53.958;10.970;2023-12-20T17:17:41;13.85;;;2.72;;
39822;SDS011;25499;53.958;10.970;2023-12-20T17:20:08;16.17;;;3.40;;
39822;SDS011;25499;53.958;10.970;2023-12-20T17:22:37;16.20;;;3.20;;
39822;SDS011;25499;53.958;10.970;2023-12-20T17:25:04;15.43;;;3.42;;
39822;SDS011;25499;53.958;10.970;2023-12-20T17:27:31;13.15;;;2.85;;
39822;SDS011;25499;53.958;10.970;2023-12-20T17:29:57;15.70;;;3.17;;
39822;SDS011;25499;53.958;10.970;2023-12-20T17:32:24;20.20;;;3.40;;
39822;SDS011;25499;53.958;10.970;2023-12-20T17:34:51;13.15;;;2.95;;
39822;SDS011;25499;53.958;10.970;2023-12-20T17:37:18;14.57;;;2.83;;
39822;SDS011;25499;53.958;10.970;2023-12-20T17:39:46;23.15;;;3.38;;
39822;SDS011;25499;53.958;10.970;2023-12-20T17:42:13;11.38;;;2.50;;
39822;SDS011;25499;53.958;10.970;2023-12-20T17:44:40;17.20;;;3.00;;
39822;SDS011;25499;53.958;10.970;2023-12-20T17:47:07;16.25;;;3.00;;
39822;SDS011;25499;53.958;10.970;2023-12-20T17:49:33;16.08;;;3.00;;
39822;SDS011;25499;53.958;10.970;2023-12-20T17:52:00;13.27;;;2.92;;
39822;SDS011;25499;53.958;10.970;2023-12-20T17:54:28;14.05;;;3.13;;
39822;SDS011;25499;53.958;10.970;2023-12-20T17:56:56;16.90;;;3.30;;
39822;SDS011;25499;53.958;10.970;2023-12-20T17:59:24;14.55;;;2.88;;
39822;SDS011;25499;53.958;10.970;2023-12-20T18:01:51;17.35;;;2.92;;
39822;SDS011;25499;53.958;10.970;2023-12-20T18:04:18;17.63;;;2.88;;
39822;SDS011;25499;53.958;10.970;2023-12-20T18:06:45;19.67;;;3.58;;
39822;SDS011;25499;53.958;10.970;2023-12-20T18:09:12;16.02;;;2.35;;
39822;SDS011;25499;53.958;10.970;2023-12-20T18:11:39;16.02;;;2.78;;
39822;SDS011;25499;53.958;10.970;2023-12-20T18:14:07;11.43;;;2.28;;
39822;SDS011;25499;53.958;10.970;2023-12-20T18:16:35;6.93;;;2.00;;
39822;SDS011;25499;53.958;10.970;2023-12-20T18:19:02;8.75;;;2.00;;
39822;SDS011;25499;53.958;10.970;2023-12-20T18:21:29;12.57;;;2.30;;
39822;SDS011;25499;53.958;10.970;2023-12-20T18:23:56;6.68;;;2.05;;
39822;SDS011;25499;53.958;10.970;2023-12-20T18:26:23;8.27;;;1.60;;
39822;SDS011;25499;53.958;10.970;2023-12-20T18:28:49;10.45;;;1.92;;
39822;SDS011;25499;53.958;10.970;2023-12-20T18:31:18;7.78;;;1.60;;
39822;SDS011;25499;53.958;10.970;2023-12-20T18:33:45;9.00;;;1.67;;
39822;SDS011;25499;53.958;10.970;2023-12-20T18:36:13;11.00;;;1.88;;
39822;SDS011;25499;53.958;10.970;2023-12-20T18:38:40;6.03;;;1.65;;
39822;SDS011;25499;53.958;10.970;2023-12-20T18:41:07;7.63;;;1.92;;
39822;SDS011;25499;53.958;10.970;2023-12-20T18:43:35;8.48;;;1.75;;
39822;SDS011;25499;53.958;10.970;2023-12-20T18:46:02;10.05;;;1.92;;
39822;SDS011;25499;53.958;10.970;2023-12-20T18:48:30;12.25;;;2.60;;
39822;SDS011;25499;53.958;10.970;2023-12-20T18:50:58;7.90;;;2.03;;
39822;SDS011;25499;53.958;10.970;2023-12-20T18:53:25;8.77;;;2.35;;
39822;SDS011;25499;53.958;10.970;2023-12-20T18:55:52;10.07;;;2.40;;
39822;SDS011;25499;53.958;10.970;2023-12-20T18:58:19;14.77;;;3.17;;
39822;SDS011;25499;53.958;10.970;2023-12-20T19:00:46;13.73;;;2.83;;
39822;SDS011;25499;53.958;10.970;2023-12-20T19:03:13;14.35;;;2.53;;
39822;SDS011;25499;53.958;10.970;2023-12-20T19:05:41;10.45;;;2.47;;
39822;SDS011;25499;53.958;10.970;2023-12-20T19:08:08;15.90;;;2.55;;
39822;SDS011;25499;53.958;10.970;2023-12-20T19:10:35;15.95;;;2.58;;
39822;SDS011;25499;53.958;10.970;2023-12-20T19:13:01;9.93;;;2.25;;
39822;SDS011;25499;53.958;10.970;2023-12-20T19:15:29;13.18;;;2.08;;
39822;SDS011;25499;53.958;10.970;2023-12-20T19:17:55;13.27;;;3.63;;
39822;SDS011;25499;53.958;10.970;2023-12-20T19:20:22;10.18;;;1.95;;
39822;SDS011;25499;53.958;10.970;2023-12-20T19:22:50;9.57;;;1.60;;
39822;SDS011;25499;53.958;10.970;2023-12-20T19:25:17;11.85;;;2.05;;
39822;SDS011;25499;53.958;10.970;2023-12-20T19:27:44;8.70;;;1.77;;
39822;SDS011;25499;53.958;10.970;2023-12-20T19:30:11;4.47;;;1.38;;
39822;SDS011;25499;53.958;10.970;2023-12-20T19:32:39;5.57;;;1.25;;
39822;SDS011;25499;53.958;10.970;2023-12-20T19:35:07;10.35;;;1.70;;
39822;SDS011;25499;53.958;10.970;2023-12-20T19:37:33;5.90;;;1.40;;
39822;SDS011;25499;53.958;10.970;2023-12-20T19:40:02;5.22;;;1.05;;
39822;SDS011;25499;53.958;10.970;2023-12-20T19:42:29;7.25;;;1.27;;
39822;SDS011;25499;53.958;10.970;2023-12-20T19:44:59;10.90;;;1.80;;
39822;SDS011;25499;53.958;10.970;2023-12-20T19:47:26;9.95;;;1.70;;
39822;SDS011;25499;53.958;10.970;2023-12-20T19:49:53;5.38;;;1.30;;
39822;SDS011;25499;53.958;10.970;2023-12-20T19:52:21;8.32;;;1.40;;
39822;SDS011;25499;53.958;10.970;2023-12-20T19:54:48;15.32;;;1.70;;
39822;SDS011;25499;53.958;10.970;2023-12-20T19:57:16;10.07;;;1.40;;
39822;SDS011;25499;53.958;10.970;2023-12-20T19:59:43;15.32;;;2.10;;
39822;SDS011;25499;53.958;10.970;2023-12-20T20:02:10;7.57;;;1.42;;
39822;SDS011;25499;53.958;10.970;2023-12-20T20:04:36;6.15;;;1.40;;
39822;SDS011;25499;53.958;10.970;2023-12-20T20:07:04;9.52;;;1.60;;
39822;SDS011;25499;53.958;10.970;2023-12-20T20:09:38;10.23;;;1.70;;
39822;SDS011;25499;53.958;10.970;2023-12-20T20:12:05;7.13;;;1.58;;
39822;SDS011;25499;53.958;10.970;2023-12-20T20:14:34;10.30;;;1.60;;
39822;SDS011;25499;53.958;10.970;2023-12-20T20:17:01;7.25;;;1.85;;
39822;SDS011;25499;53.958;10.970;2023-12-20T20:19:28;13.02;;;1.98;;
39822;SDS011;25499;53.958;10.970;2023-12-20T20:21:54;13.80;;;1.90;;
39822;SDS011;25499;53.958;10.970;2023-12-20T20:24:21;9.35;;;1.60;;
39822;SDS011;25499;53.958;10.970;2023-12-20T20:26:48;7.53;;;1.90;;
39822;SDS011;25499;53.958;10.970;2023-12-20T20:29:15;11.48;;;1.80;;
39822;SDS011;25499;53.958;10.970;2023-12-20T20:31:43;8.80;;;2.10;;
39822;SDS011;25499;53.958;10.970;2023-12-20T20:34:10;9.55;;;2.03;;
39822;SDS011;25499;53.958;10.970;2023-12-20T20:36:37;10.55;;;2.15;;
39822;SDS011;25499;53.958;10.970;2023-12-20T20:39:04;13.35;;;2.35;;
39822;SDS011;25499;53.958;10.970;2023-12-20T20:41:31;12.73;;;2.30;;
39822;SDS011;25499;53.958;10.970;2023-12-20T20:43:58;12.98;;;2.35;;
39822;SDS011;25499;53.958;10.970;2023-12-20T20:46:25;8.43;;;2.00;;
39822;SDS011;25499;53.958;10.970;2023-12-20T20:48:55;11.30;;;2.60;;
39822;SDS011;25499;53.958;10.970;2023-12-20T20:51:22;12.60;;;2.70;;
39822;SDS011;25499;53.958;10.970;2023-12-20T20:53:49;11.02;;;2.60;;
39822;SDS011;25499;53.958;10.970;2023-12-20T20:56:16;11.63;;;2.60;;
39822;SDS011;25499;53.958;10.970;2023-12-20T20:58:43;12.07;;;2.78;;
39822;SDS011;25499;53.958;10.970;2023-12-20T21:01:10;12.07;;;3.28;;
39822;SDS011;25499;53.958;10.970;2023-12-20T21:03:37;14.98;;;2.55;;
39822;SDS011;25499;53.958;10.970;2023-12-20T21:06:05;13.25;;;2.80;;
39822;SDS011;25499;53.958;10.970;2023-12-20T21:08:32;12.70;;;2.35;;
39822;SDS011;25499;53.958;10.970;2023-12-20T21:10:59;12.52;;;2.65;;
39822;SDS011;25499;53.958;10.970;2023-12-20T21:13:26;8.18;;;2.35;;
39822;SDS011;25499;53.958;10.970;2023-12-20T21:15:54;16.45;;;2.67;;
39822;SDS011;25499;53.958;10.970;2023-12-20T21:18:21;10.70;;;2.33;;
39822;SDS011;25499;53.958;10.970;2023-12-20T21:20:48;12.80;;;2.25;;
39822;SDS011;25499;53.958;10.970;2023-12-20T21:23:16;11.75;;;2.25;;
39822;SDS011;25499;53.958;10.970;2023-12-20T21:25:44;13.68;;;2.63;;
39822;SDS011;25499;53.958;10.970;2023-12-20T21:28:11;11.30;;;2.10;;
39822;SDS011;25499;53.958;10.970;2023-12-20T21:30:38;8.52;;;1.85;;
39822;SDS011;25499;53.958;10.970;2023-12-20T21:33:05;10.02;;;2.55;;
39822;SDS011;25499;53.958;10.970;2023-12-20T21:35:32;13.73;;;2.90;;
39822;SDS011;25499;53.958;10.970;2023-12-20T21:38:00;9.95;;;1.80;;